createdAt,value
2023-04-04T00:05:42.001Z,2.09
2023-04-04T00:16:43.759Z,0.00
2023-04-04T00:27:45.472Z,0.00
2023-04-04T00:38:47.258Z,0.00
2023-04-04T00:42:28.810Z,1.70
2023-04-04T00:53:30.571Z,0.00
2023-04-04T01:04:32.457Z,0.00
2023-04-04T01:15:34.031Z,0.00
2023-04-04T01:26:35.799Z,0.00
2023-04-04T01:37:37.560Z,0.00
2023-04-04T01:48:39.308Z,0.00
2023-04-04T01:59:41.058Z,0.00
2023-04-04T02:10:43.044Z,0.00
2023-04-04T02:21:44.550Z,2.48
2023-04-04T02:32:46.350Z,0.00
2023-04-04T02:43:48.043Z,0.00
2023-04-04T02:47:29.650Z,2.77
2023-04-04T02:58:31.420Z,0.00
2023-04-04T03:02:13.008Z,2.09
2023-04-04T03:09:34.660Z,1.70
2023-04-04T03:13:16.205Z,2.09
2023-04-04T03:24:17.984Z,0.00
2023-04-04T03:35:19.712Z,0.00
2023-04-04T03:46:21.540Z,0.00
2023-04-04T03:57:23.199Z,0.00
2023-04-04T04:08:25.369Z,0.00
2023-04-04T04:19:26.678Z,0.00
2023-04-04T04:23:08.254Z,2.96
2023-04-04T04:26:49.903Z,2.56
2023-04-04T04:34:11.588Z,2.13
2023-04-04T04:37:53.158Z,2.09
2023-04-04T04:48:55.027Z,0.00
2023-04-04T04:59:56.641Z,0.00
2023-04-04T05:10:58.412Z,0.00
2023-04-04T05:22:00.117Z,0.00
2023-04-04T05:33:01.914Z,0.00
2023-04-04T05:44:03.569Z,0.00
2023-04-04T05:55:05.345Z,0.00
2023-04-04T05:58:46.951Z,2.09
2023-04-04T06:02:28.507Z,2.09
2023-04-04T06:06:10.147Z,2.70
2023-04-04T06:09:51.656Z,2.67
2023-04-04T06:13:33.327Z,2.91
2023-04-04T06:17:14.986Z,3.89
2023-04-04T06:20:56.567Z,2.29
2023-04-04T06:31:58.340Z,0.00
2023-04-04T06:39:20.033Z,5.43
2023-04-04T06:43:01.752Z,4.43
2023-04-04T06:46:43.459Z,6.03
2023-04-04T06:50:25.227Z,4.92
2023-04-04T06:54:06.926Z,3.78
2023-04-04T06:57:48.620Z,4.10
2023-04-04T07:01:30.487Z,4.89
2023-04-04T07:05:12.079Z,2.50
2023-04-04T07:08:53.898Z,3.82
2023-04-04T07:12:35.497Z,3.39
2023-04-04T07:16:17.223Z,4.61
2023-04-04T07:19:58.816Z,3.32
2023-04-04T07:23:40.458Z,2.84
2023-04-04T07:27:22.063Z,2.48
2023-04-04T07:31:03.683Z,2.82
2023-04-04T07:34:45.318Z,2.32
2023-04-04T07:38:27.058Z,3.74
2023-04-04T07:42:08.809Z,3.43
2023-04-04T07:45:50.650Z,6.05
2023-04-04T07:49:32.335Z,3.19
2023-04-04T07:53:13.982Z,4.21
2023-04-04T07:56:55.629Z,2.94
2023-04-04T08:00:37.614Z,5.17
2023-04-04T08:04:19.233Z,4.31
2023-04-04T08:08:00.836Z,6.92
2023-04-04T08:11:42.609Z,3.78
2023-04-04T08:15:24.157Z,2.67
2023-04-04T08:19:05.924Z,4.78
2023-04-04T08:22:47.695Z,3.67
2023-04-04T08:26:29.340Z,4.03
2023-04-04T08:30:11.116Z,6.53
2023-04-04T08:33:53.007Z,7.31
2023-04-04T08:37:34.751Z,4.72
2023-04-04T08:41:16.475Z,5.25
2023-04-04T08:44:58.281Z,5.74
2023-04-04T08:48:40.005Z,4.23
2023-04-04T08:52:21.864Z,6.30
2023-04-04T08:56:03.696Z,5.54
2023-04-04T08:59:45.668Z,5.30
2023-04-04T09:03:27.425Z,5.19
2023-04-04T09:07:09.118Z,5.48
2023-04-04T09:10:51.090Z,6.04
2023-04-04T09:14:32.850Z,5.67
2023-04-04T09:18:14.795Z,5.20
2023-04-04T09:21:56.671Z,5.57
2023-04-04T09:25:38.579Z,6.80
2023-04-04T09:29:20.471Z,5.36
2023-04-04T09:33:02.291Z,6.26
2023-04-04T09:36:44.132Z,5.07
2023-04-04T09:40:25.961Z,6.43
2023-04-04T09:44:07.938Z,4.22
2023-04-04T09:47:49.718Z,3.43
2023-04-04T09:51:31.173Z,3.07
2023-04-04T09:55:12.975Z,4.68
2023-04-04T09:59:03.080Z,6.55
2023-04-04T10:02:36.749Z,3.64
2023-04-04T10:06:18.534Z,5.49
2023-04-04T10:10:00.327Z,5.83
2023-04-04T10:13:42.476Z,5.88
2023-04-04T10:17:23.924Z,3.30
2023-04-04T10:21:15.308Z,5.64
2023-04-04T10:24:47.505Z,4.94
2023-04-04T10:28:29.241Z,4.53
2023-04-04T10:32:11.082Z,4.36
2023-04-04T10:35:52.731Z,4.12
2023-04-04T10:39:34.408Z,4.20
2023-04-04T10:43:16.123Z,4.28
2023-04-04T10:46:57.967Z,5.15
2023-04-04T10:50:39.845Z,5.58
2023-04-04T10:54:21.608Z,5.58
2023-04-04T10:58:03.472Z,5.26
2023-04-04T11:01:45.330Z,6.57
2023-04-04T11:05:27.038Z,5.74
2023-04-04T11:09:08.717Z,2.79
2023-04-04T11:12:53.077Z,3.55
2023-04-04T11:16:32.213Z,9.03
2023-04-04T11:20:14.043Z,5.94
2023-04-04T11:23:55.947Z,6.84
2023-04-04T11:27:37.885Z,6.36
2023-04-04T11:31:19.739Z,4.38
2023-04-04T11:35:01.474Z,5.69
2023-04-04T11:38:43.197Z,4.34
2023-04-04T11:42:25.004Z,4.25
2023-04-04T11:46:06.928Z,4.87
2023-04-04T11:49:48.828Z,8.56
2023-04-04T11:53:30.634Z,6.46
2023-04-04T11:57:12.562Z,7.29
2023-04-04T12:00:54.378Z,4.54
2023-04-04T12:04:37.392Z,5.94
2023-04-04T12:08:18.123Z,6.51
2023-04-04T12:12:00.043Z,4.84
2023-04-04T12:15:42.142Z,6.15
2023-04-04T12:19:23.575Z,3.91
2023-04-04T12:23:05.483Z,5.70
2023-04-04T12:26:47.365Z,5.87
2023-04-04T12:30:29.169Z,4.18
2023-04-04T12:34:11.097Z,5.30
2023-04-04T12:37:52.977Z,5.31
2023-04-04T12:41:34.789Z,5.30
2023-04-04T12:45:16.681Z,8.69
2023-04-04T12:48:58.570Z,5.85
2023-04-04T12:52:45.064Z,6.29
2023-04-04T12:56:25.447Z,5.18
2023-04-04T13:00:07.398Z,6.80
2023-04-04T13:03:49.322Z,5.54
2023-04-04T13:07:31.246Z,6.92
2023-04-04T13:11:13.176Z,7.12
2023-04-04T13:14:55.144Z,9.32
2023-04-04T13:18:37.168Z,7.33
2023-04-04T13:22:19.092Z,10.83
2023-04-04T13:26:01.067Z,9.17
2023-04-04T13:29:43.055Z,10.09
2023-04-04T13:33:25.013Z,7.18
2023-04-04T13:37:07.016Z,8.74
2023-04-04T13:40:48.923Z,7.76
2023-04-04T13:44:30.835Z,6.35
2023-04-04T13:48:12.691Z,6.47
2023-04-04T13:51:54.556Z,6.94
2023-04-04T13:55:36.622Z,8.23
2023-04-04T13:59:18.564Z,6.06
2023-04-04T14:03:00.596Z,7.40
2023-04-04T14:06:42.424Z,5.42
2023-04-04T14:10:24.355Z,7.37
2023-04-04T14:14:06.389Z,9.38
2023-04-04T14:17:48.243Z,7.06
2023-04-04T14:21:30.184Z,10.65
2023-04-04T14:25:12.093Z,8.96
2023-04-04T14:28:53.992Z,7.11
2023-04-04T14:32:35.936Z,7.84
2023-04-04T14:36:17.866Z,8.25
2023-04-04T14:39:59.739Z,6.63
2023-04-04T14:43:41.672Z,6.39
2023-04-04T14:47:23.677Z,9.73
2023-04-04T14:51:05.569Z,9.84
2023-04-04T14:54:47.448Z,6.78
2023-04-04T14:58:29.296Z,8.23
2023-04-04T15:02:11.214Z,8.82
2023-04-04T15:05:53.127Z,6.37
2023-04-04T15:09:35.020Z,5.61
2023-04-04T15:13:16.913Z,8.28
2023-04-04T15:16:58.861Z,11.38
2023-04-04T15:20:40.902Z,9.55
2023-04-04T15:24:22.750Z,6.05
2023-04-04T15:28:04.633Z,7.58
2023-04-04T15:31:46.626Z,8.79
2023-04-04T15:35:28.492Z,7.63
2023-04-04T15:39:10.490Z,10.95
2023-04-04T15:42:52.447Z,7.45
2023-04-04T15:46:34.448Z,7.65
2023-04-04T15:50:16.318Z,6.81
2023-04-04T15:53:58.147Z,6.18
2023-04-04T15:57:40.060Z,8.07
2023-04-04T16:01:22.078Z,8.75
2023-04-04T16:05:03.950Z,6.43
2023-04-04T16:08:45.836Z,7.98
2023-04-04T16:12:27.700Z,4.95
2023-04-04T16:16:09.580Z,8.02
2023-04-04T16:19:51.479Z,7.48
2023-04-04T16:23:33.285Z,5.46
2023-04-04T16:27:15.131Z,5.18
2023-04-04T16:30:56.964Z,6.06
2023-04-04T16:34:39.035Z,5.45
2023-04-04T16:38:20.696Z,5.75
2023-04-04T16:42:02.573Z,4.95
2023-04-04T16:45:44.398Z,5.31
2023-04-04T16:49:26.279Z,5.65
2023-04-04T16:53:09.450Z,4.20
2023-04-04T16:56:49.732Z,4.55
2023-04-04T17:00:31.498Z,4.05
2023-04-04T17:04:13.464Z,5.55
2023-04-04T17:07:55.287Z,8.04
2023-04-04T17:11:37.119Z,5.48
2023-04-04T17:15:18.973Z,5.77
2023-04-04T17:19:00.773Z,4.06
2023-04-04T17:22:42.523Z,5.50
2023-04-04T17:26:24.344Z,3.86
2023-04-04T17:30:06.262Z,4.26
2023-04-04T17:33:48.319Z,4.44
2023-04-04T17:37:30.128Z,4.00
2023-04-04T17:41:11.786Z,3.63
2023-04-04T17:44:53.564Z,2.70
2023-04-04T17:48:35.221Z,2.74
2023-04-04T17:52:18.132Z,3.62
2023-04-04T17:55:59.837Z,2.52
2023-04-04T17:59:41.569Z,2.91
2023-04-04T18:03:23.418Z,2.52
2023-04-04T18:07:04.888Z,2.68
2023-04-04T18:14:26.656Z,4.14
2023-04-04T18:18:08.322Z,3.72
2023-04-04T18:21:49.862Z,3.83
2023-04-04T18:25:31.558Z,3.36
2023-04-04T18:29:13.244Z,3.49
2023-04-04T18:32:55.214Z,3.41
2023-04-04T18:36:37.203Z,4.30
2023-04-04T18:40:19.104Z,3.54
2023-04-04T18:44:00.963Z,2.28
2023-04-04T18:47:42.871Z,2.71
2023-04-04T18:51:24.556Z,2.40
2023-04-04T18:55:06.397Z,3.22
2023-04-04T18:58:48.132Z,1.96
2023-04-04T19:02:29.792Z,2.22
2023-04-04T19:06:11.572Z,2.32
2023-04-04T19:09:53.532Z,2.30
2023-04-04T19:13:35.266Z,2.09
2023-04-04T19:17:17.017Z,4.23
2023-04-04T19:28:20.037Z,2.31
2023-04-04T19:32:01.850Z,2.87
2023-04-04T19:35:43.682Z,2.41
2023-04-04T19:46:45.517Z,3.12
2023-04-04T19:57:47.309Z,0.00
2023-04-04T20:08:49.151Z,0.00
2023-04-04T20:19:51.041Z,0.00
2023-04-04T20:30:52.874Z,0.00
2023-04-04T20:41:54.643Z,0.00
2023-04-04T20:52:56.411Z,0.00
2023-04-04T21:03:58.118Z,0.00
2023-04-04T21:14:59.901Z,0.00
2023-04-04T21:26:01.598Z,0.00
2023-04-04T21:37:03.403Z,0.00
2023-04-04T21:48:05.220Z,0.00
2023-04-04T21:59:06.962Z,0.00
2023-04-04T22:10:08.662Z,0.00
2023-04-04T22:21:10.440Z,0.00
2023-04-04T22:32:12.220Z,0.00
2023-04-04T22:43:13.929Z,0.00
2023-04-04T22:54:15.735Z,0.00
2023-04-04T23:05:17.403Z,0.00
2023-04-04T23:16:19.313Z,0.00
2023-04-04T23:27:20.866Z,0.00
2023-04-04T23:38:22.565Z,0.00
2023-04-04T23:49:24.322Z,0.00
